createdAt,value
2023-02-15T00:01:42.937Z,103017.34
2023-02-15T00:04:11.670Z,103016.50
2023-02-15T00:06:39.601Z,103018.25
2023-02-15T00:09:08.568Z,103006.69
2023-02-15T00:11:43.484Z,103004.84
2023-02-15T00:14:13.749Z,103000.44
2023-02-15T00:16:42.580Z,103002.75
2023-02-15T00:19:11.159Z,102997.06
2023-02-15T00:21:40.007Z,102990.66
2023-02-15T00:24:11.300Z,102992.97
2023-02-15T00:26:40.663Z,102998.66
2023-02-15T00:29:09.422Z,102980.97
2023-02-15T00:31:37.499Z,102982.53
2023-02-15T00:34:07.100Z,102980.66
2023-02-15T00:36:35.315Z,102979.75
2023-02-15T00:39:03.077Z,102981.53
2023-02-15T00:41:32.219Z,102975.47
2023-02-15T00:43:59.807Z,102974.88
2023-02-15T00:46:28.179Z,102969.88
2023-02-15T00:48:56.050Z,102976.97
2023-02-15T00:51:23.710Z,102986.69
2023-02-15T00:53:51.425Z,102979.91
2023-02-15T00:56:19.409Z,102970.41
2023-02-15T00:58:48.372Z,102974.03
2023-02-15T01:01:18.530Z,102976.97
2023-02-15T01:03:47.457Z,102973.75
2023-02-15T01:06:16.201Z,102962.94
2023-02-15T01:08:44.394Z,102967.63
2023-02-15T01:11:15.483Z,102958.97
2023-02-15T01:13:43.575Z,102961.06
2023-02-15T01:16:12.563Z,102958.66
2023-02-15T01:18:40.243Z,102956.28
2023-02-15T01:21:14.790Z,102958.50
2023-02-15T01:23:43.075Z,102953.41
2023-02-15T01:26:11.537Z,102962.28
2023-02-15T01:28:39.592Z,102960.50
2023-02-15T01:31:08.424Z,102960.50
2023-02-15T01:33:38.141Z,102955.31
2023-02-15T01:36:06.972Z,102957.31
2023-02-15T01:38:36.134Z,102957.53
2023-02-15T01:41:18.244Z,102956.97
2023-02-15T01:43:48.348Z,102957.25
2023-02-15T01:46:18.523Z,102946.00
2023-02-15T01:48:51.482Z,102940.75
2023-02-15T01:51:23.926Z,102935.59
2023-02-15T01:53:56.440Z,102929.66
2023-02-15T01:56:26.852Z,102920.16
2023-02-15T01:58:58.738Z,102921.16
2023-02-15T02:01:27.668Z,102925.69
2023-02-15T02:04:02.602Z,102920.59
2023-02-15T02:06:31.309Z,102922.38
2023-02-15T02:08:59.523Z,102910.13
2023-02-15T02:11:27.143Z,102909.97
2023-02-15T02:13:56.608Z,102909.72
2023-02-15T02:16:29.596Z,102906.97
2023-02-15T02:19:20.901Z,102902.28
2023-02-15T02:22:10.006Z,102896.75
2023-02-15T02:25:01.989Z,102891.19
2023-02-15T02:27:38.524Z,102887.66
2023-02-15T02:30:29.325Z,102885.66
2023-02-15T02:33:21.806Z,102883.66
2023-02-15T02:35:59.175Z,102885.34
2023-02-15T02:38:34.664Z,102885.19
2023-02-15T02:41:14.803Z,102886.66
2023-02-15T02:43:49.579Z,102872.69
2023-02-15T02:46:22.492Z,102873.47
2023-02-15T02:48:52.066Z,102867.16
2023-02-15T02:51:22.421Z,102862.75
2023-02-15T02:53:56.465Z,102861.84
2023-02-15T02:56:29.405Z,102857.34
2023-02-15T02:59:01.333Z,102857.25
2023-02-15T03:01:35.312Z,102841.44
2023-02-15T03:04:09.343Z,102844.84
2023-02-15T03:06:47.919Z,102853.41
2023-02-15T03:09:19.488Z,102843.66
2023-02-15T03:11:48.071Z,102838.41
2023-02-15T03:14:18.274Z,102838.25
2023-02-15T03:16:49.373Z,102843.34
2023-02-15T03:19:24.805Z,102834.50
2023-02-15T03:22:04.762Z,102834.25
2023-02-15T03:24:36.505Z,102830.72
2023-02-15T03:27:08.193Z,102834.84
2023-02-15T03:29:37.325Z,102822.41
2023-02-15T03:32:08.650Z,102817.25
2023-02-15T03:34:37.723Z,102809.47
2023-02-15T03:37:14.359Z,102826.31
2023-02-15T03:39:47.078Z,102817.34
2023-02-15T03:42:19.332Z,102810.22
2023-02-15T03:44:53.487Z,102810.16
2023-02-15T03:47:24.235Z,102811.06
2023-02-15T03:49:57.497Z,102812.78
2023-02-15T03:52:27.316Z,102812.50
2023-02-15T03:54:55.697Z,102807.34
2023-02-15T03:57:42.781Z,102805.59
2023-02-15T04:00:34.117Z,102790.69
2023-02-15T04:03:24.333Z,102796.00
2023-02-15T04:05:53.339Z,102795.16
2023-02-15T04:08:21.015Z,102796.94
2023-02-15T04:10:53.489Z,102803.97
2023-02-15T04:13:21.497Z,102805.59
2023-02-15T04:16:07.556Z,102805.50
2023-02-15T04:18:55.125Z,102798.41
2023-02-15T04:21:43.143Z,102799.91
2023-02-15T04:24:28.824Z,102799.91
2023-02-15T04:26:56.812Z,102800.88
2023-02-15T04:29:25.901Z,102805.09
2023-02-15T04:31:55.037Z,102795.34
2023-02-15T04:34:22.785Z,102797.75
2023-02-15T04:36:52.208Z,102795.78
2023-02-15T04:39:20.634Z,102797.41
2023-02-15T04:41:48.801Z,102801.66
2023-02-15T04:44:16.711Z,102787.56
2023-02-15T04:46:44.622Z,102796.13
2023-02-15T04:49:12.317Z,102799.63
2023-02-15T04:51:39.976Z,102793.50
2023-02-15T04:54:08.964Z,102790.97
2023-02-15T04:56:38.665Z,102780.47
2023-02-15T04:59:06.329Z,102784.03
2023-02-15T05:01:33.928Z,102779.63
2023-02-15T05:04:01.522Z,102784.03
2023-02-15T05:06:29.601Z,102785.91
2023-02-15T05:08:59.846Z,102775.56
2023-02-15T05:11:29.191Z,102778.25
2023-02-15T05:13:56.849Z,102780.03
2023-02-15T05:16:24.569Z,102771.41
2023-02-15T05:18:52.493Z,102774.88
2023-02-15T05:21:20.089Z,102771.50
2023-02-15T05:23:47.855Z,102765.38
2023-02-15T05:26:37.653Z,102775.78
2023-02-15T05:29:06.832Z,102772.41
2023-02-15T05:31:35.734Z,102775.91
2023-02-15T05:34:03.671Z,102774.28
2023-02-15T05:36:31.312Z,102773.50
2023-02-15T05:38:59.004Z,102770.34
2023-02-15T05:41:26.636Z,102762.47
2023-02-15T05:43:57.069Z,102763.16
2023-02-15T05:46:26.277Z,102764.69
2023-02-15T05:48:53.908Z,102768.25
2023-02-15T05:51:21.578Z,102765.56
2023-02-15T05:53:49.147Z,102767.41
2023-02-15T05:56:16.761Z,102756.72
2023-02-15T05:58:44.521Z,102759.34
2023-02-15T06:01:13.620Z,102762.75
2023-02-15T06:03:43.018Z,102757.41
2023-02-15T06:06:11.247Z,102758.28
2023-02-15T06:08:40.057Z,102758.38
2023-02-15T06:11:08.541Z,102759.88
2023-02-15T06:13:38.923Z,102757.06
2023-02-15T06:16:07.365Z,102744.91
2023-02-15T06:18:35.524Z,102737.94
2023-02-15T06:21:04.685Z,102750.91
2023-02-15T06:23:32.390Z,102742.09
2023-02-15T06:26:00.219Z,102743.88
2023-02-15T06:28:27.952Z,102742.94
2023-02-15T06:30:55.632Z,102752.63
2023-02-15T06:33:23.729Z,102742.94
2023-02-15T06:35:51.381Z,102736.84
2023-02-15T06:38:20.348Z,102735.06
2023-02-15T06:40:48.515Z,102732.53
2023-02-15T06:43:16.176Z,102733.28
2023-02-15T06:45:43.998Z,102736.06
2023-02-15T06:48:12.101Z,102729.81
2023-02-15T06:50:39.746Z,102726.34
2023-02-15T06:53:07.429Z,102727.09
2023-02-15T06:55:36.428Z,102725.41
2023-02-15T06:58:04.021Z,102732.34
2023-02-15T07:00:31.833Z,102718.28
2023-02-15T07:03:01.004Z,102722.59
2023-02-15T07:05:31.673Z,102729.38
2023-02-15T07:08:00.387Z,102725.91
2023-02-15T07:10:28.187Z,102724.13
2023-02-15T07:12:56.146Z,102724.03
2023-02-15T07:15:24.085Z,102718.63
2023-02-15T07:17:52.040Z,102724.91
2023-02-15T07:20:21.531Z,102724.72
2023-02-15T07:22:49.748Z,102715.91
2023-02-15T07:25:17.777Z,102719.13
2023-02-15T07:27:45.823Z,102715.41
2023-02-15T07:30:17.477Z,102708.09
2023-02-15T07:33:05.558Z,102719.19
2023-02-15T07:35:33.866Z,102708.31
2023-02-15T07:38:01.599Z,102707.28
2023-02-15T07:40:29.247Z,102700.09
2023-02-15T07:43:00.223Z,102691.19
2023-02-15T07:45:29.407Z,102697.09
2023-02-15T07:47:57.020Z,102691.84
2023-02-15T07:50:24.994Z,102684.66
2023-02-15T07:52:52.570Z,102687.94
2023-02-15T07:55:20.290Z,102685.22
2023-02-15T07:57:49.496Z,102690.97
2023-02-15T08:00:18.732Z,102685.91
2023-02-15T08:03:11.090Z,102676.16
2023-02-15T08:05:39.065Z,102680.22
2023-02-15T08:08:06.861Z,102675.25
2023-02-15T08:10:52.389Z,102675.44
2023-02-15T08:13:20.326Z,102682.03
2023-02-15T08:15:50.599Z,102676.94
2023-02-15T08:18:19.801Z,102673.84
2023-02-15T08:20:51.336Z,102669.81
2023-02-15T08:23:18.994Z,102671.41
2023-02-15T08:25:46.649Z,102666.63
2023-02-15T08:28:14.425Z,102660.66
2023-02-15T08:30:42.211Z,102662.38
2023-02-15T08:33:10.794Z,102656.13
2023-02-15T08:35:39.723Z,102647.38
2023-02-15T08:38:07.341Z,102650.13
2023-02-15T08:40:35.861Z,102652.03
2023-02-15T08:43:03.456Z,102649.28
2023-02-15T08:45:31.094Z,102645.91
2023-02-15T08:47:58.682Z,102648.75
2023-02-15T08:50:26.267Z,102646.75
2023-02-15T08:52:57.595Z,102642.13
2023-02-15T08:55:25.222Z,102648.53
2023-02-15T08:57:52.848Z,102651.19
2023-02-15T09:00:23.418Z,102646.56
2023-02-15T09:02:51.300Z,102647.19
2023-02-15T09:05:18.849Z,102649.44
2023-02-15T09:07:46.527Z,102642.97
2023-02-15T09:10:15.763Z,102644.03
2023-02-15T09:12:43.399Z,102641.94
2023-02-15T09:15:11.803Z,102649.44
2023-02-15T09:17:39.478Z,102643.97
2023-02-15T09:20:08.503Z,102634.63
2023-02-15T09:22:36.122Z,102640.75
2023-02-15T09:25:03.806Z,102640.47
2023-02-15T09:27:32.846Z,102642.69
2023-02-15T09:30:00.495Z,102645.66
2023-02-15T09:32:28.176Z,102649.47
2023-02-15T09:34:55.926Z,102647.28
2023-02-15T09:37:23.500Z,102647.81
2023-02-15T09:39:51.117Z,102644.84
2023-02-15T09:42:42.667Z,102636.44
2023-02-15T09:45:28.663Z,102638.88
2023-02-15T09:48:30.535Z,102637.63
2023-02-15T09:51:12.169Z,102641.03
2023-02-15T09:53:58.256Z,102641.00
2023-02-15T09:56:37.792Z,102641.94
2023-02-15T09:59:18.814Z,102638.69
2023-02-15T10:01:54.244Z,102642.38
2023-02-15T10:04:47.967Z,102634.16
2023-02-15T10:07:25.683Z,102626.22
2023-02-15T10:10:04.785Z,102623.59
2023-02-15T10:12:44.553Z,102625.03
2023-02-15T10:15:30.591Z,102621.00
2023-02-15T10:18:12.002Z,102624.44
2023-02-15T10:20:51.006Z,102625.47
2023-02-15T10:23:35.249Z,102619.97
2023-02-15T10:26:12.336Z,102621.03
2023-02-15T10:28:47.299Z,102621.25
2023-02-15T10:31:29.119Z,102614.28
2023-02-15T10:34:17.602Z,102619.97
2023-02-15T10:37:05.382Z,102612.16
2023-02-15T10:39:44.985Z,102607.16
2023-02-15T10:42:22.467Z,102610.22
2023-02-15T10:45:08.786Z,102608.25
2023-02-15T10:47:55.848Z,102614.97
2023-02-15T10:50:38.872Z,102612.63
2023-02-15T10:53:31.211Z,102607.59
2023-02-15T10:56:09.739Z,102600.50
2023-02-15T10:58:48.983Z,102604.38
2023-02-15T11:01:24.448Z,102604.13
2023-02-15T11:04:12.323Z,102604.81
2023-02-15T11:06:49.198Z,102602.16
2023-02-15T11:09:19.252Z,102603.84
2023-02-15T11:11:52.129Z,102601.09
2023-02-15T11:14:25.685Z,102592.88
2023-02-15T11:16:57.054Z,102591.06
2023-02-15T11:19:33.200Z,102584.44
2023-02-15T11:22:03.251Z,102579.66
2023-02-15T11:24:35.675Z,102581.25
2023-02-15T11:27:07.531Z,102579.31
2023-02-15T11:29:40.587Z,102576.34
2023-02-15T11:32:22.259Z,102568.66
2023-02-15T11:34:55.481Z,102558.81
2023-02-15T11:37:29.782Z,102546.44
2023-02-15T11:39:57.774Z,102541.34
2023-02-15T11:42:27.347Z,102535.59
2023-02-15T11:45:01.740Z,102540.88
2023-02-15T11:47:29.996Z,102531.47
2023-02-15T11:49:59.708Z,102533.66
2023-02-15T11:52:27.319Z,102528.47
2023-02-15T11:54:55.585Z,102524.63
2023-02-15T11:57:29.913Z,102529.09
2023-02-15T12:00:04.891Z,102522.34
2023-02-15T12:02:35.904Z,102518.97
2023-02-15T12:05:11.383Z,102512.13
2023-02-15T12:07:44.455Z,102521.75
2023-02-15T12:10:21.052Z,102515.47
2023-02-15T12:12:48.738Z,102498.53
2023-02-15T12:15:16.442Z,102505.13
2023-02-15T12:17:52.670Z,102507.53
2023-02-15T12:20:31.433Z,102492.88
2023-02-15T12:23:04.237Z,102482.41
2023-02-15T12:25:37.524Z,102487.53
2023-02-15T12:28:06.272Z,102485.50
2023-02-15T12:30:37.740Z,102487.94
2023-02-15T12:33:16.170Z,102479.72
2023-02-15T12:35:50.243Z,102481.16
2023-02-15T12:38:25.674Z,102475.50
2023-02-15T12:41:00.889Z,102481.41
2023-02-15T12:43:31.846Z,102487.03
2023-02-15T12:46:16.741Z,102478.84
2023-02-15T12:48:44.390Z,102482.94
2023-02-15T12:51:17.625Z,102480.66
2023-02-15T12:53:45.468Z,102484.50
2023-02-15T12:56:13.153Z,102477.06
2023-02-15T12:58:41.647Z,102478.25
2023-02-15T13:01:16.419Z,102475.59
2023-02-15T13:03:58.382Z,102479.31
2023-02-15T13:06:28.566Z,102468.84
2023-02-15T13:08:59.507Z,102466.47
2023-02-15T13:11:31.156Z,102466.91
2023-02-15T13:14:01.511Z,102463.06
2023-02-15T13:16:33.751Z,102458.34
2023-02-15T13:19:08.752Z,102460.34
2023-02-15T13:21:41.692Z,102457.44
2023-02-15T13:24:19.872Z,102466.09
2023-02-15T13:26:49.054Z,102456.75
2023-02-15T13:29:22.953Z,102456.34
2023-02-15T13:31:52.059Z,102451.38
2023-02-15T13:34:25.474Z,102444.38
2023-02-15T13:37:02.557Z,102443.44
2023-02-15T13:39:41.030Z,102448.84
2023-02-15T13:42:23.093Z,102444.97
2023-02-15T13:45:04.624Z,102431.88
2023-02-15T13:47:43.343Z,102429.78
2023-02-15T13:50:30.467Z,102436.41
2023-02-15T13:53:18.127Z,102434.97
2023-02-15T13:55:52.842Z,102434.44
2023-02-15T13:58:37.259Z,102430.03
2023-02-15T14:01:11.790Z,102430.19
2023-02-15T14:04:17.741Z,102427.84
2023-02-15T14:07:14.288Z,102428.34
2023-02-15T14:09:55.088Z,102426.56
2023-02-15T14:12:37.266Z,102417.16
2023-02-15T14:15:24.753Z,102418.97
2023-02-15T14:18:04.707Z,102422.59
2023-02-15T14:20:43.599Z,102411.47
2023-02-15T14:23:30.509Z,102423.38
2023-02-15T14:26:06.459Z,102402.75
2023-02-15T14:28:43.336Z,102407.34
2023-02-15T14:31:15.556Z,102399.66
2023-02-15T14:33:55.881Z,102400.25
2023-02-15T14:36:26.810Z,102399.25
2023-02-15T14:39:05.184Z,102389.50
2023-02-15T14:41:40.712Z,102385.19
2023-02-15T14:44:15.212Z,102394.69
2023-02-15T14:46:50.509Z,102391.19
2023-02-15T14:49:23.859Z,102394.44
2023-02-15T14:52:09.604Z,102383.84
2023-02-15T14:54:58.212Z,102392.03
2023-02-15T14:57:36.066Z,102394.94
2023-02-15T15:00:33.363Z,102390.88
2023-02-15T15:03:02.192Z,102386.66
2023-02-15T15:05:35.107Z,102381.53
2023-02-15T15:08:05.691Z,102390.22
2023-02-15T15:10:42.976Z,102388.91
2023-02-15T15:13:48.354Z,102386.66
2023-02-15T15:16:53.479Z,102375.47
2023-02-15T15:20:09.322Z,102369.59
2023-02-15T15:22:38.231Z,102372.22
2023-02-15T15:25:11.446Z,102368.75
2023-02-15T15:27:49.531Z,102373.47
2023-02-15T15:31:02.894Z,102366.03
2023-02-15T15:34:00.761Z,102363.38
2023-02-15T15:37:12.722Z,102352.19
2023-02-15T15:40:13.921Z,102350.72
2023-02-15T15:42:51.495Z,102353.53
2023-02-15T15:45:41.714Z,102345.69
2023-02-15T15:48:34.322Z,102346.94
2023-02-15T15:51:07.827Z,102347.53
2023-02-15T15:53:43.184Z,102338.31
2023-02-15T15:56:16.430Z,102335.91
2023-02-15T15:58:51.514Z,102332.91
2023-02-15T16:01:28.334Z,102328.38
2023-02-15T16:03:58.208Z,102329.47
2023-02-15T16:06:33.842Z,102321.78
2023-02-15T16:09:17.512Z,102314.09
2023-02-15T16:11:45.891Z,102310.84
2023-02-15T16:14:16.291Z,102312.09
2023-02-15T16:16:51.471Z,102309.94
2023-02-15T16:19:25.721Z,102309.19
2023-02-15T16:21:55.692Z,102307.03
2023-02-15T16:24:30.021Z,102302.00
2023-02-15T16:27:27.714Z,102304.06
2023-02-15T16:29:55.377Z,102303.72
2023-02-15T16:32:25.610Z,102305.50
2023-02-15T16:34:58.378Z,102302.97
2023-02-15T16:37:28.920Z,102305.88
2023-02-15T16:39:57.257Z,102301.56
2023-02-15T16:42:25.800Z,102302.41
2023-02-15T16:45:01.253Z,102304.19
2023-02-15T16:47:32.474Z,102313.94
2023-02-15T16:50:02.430Z,102302.41
2023-02-15T16:52:32.517Z,102305.03
2023-02-15T16:55:01.703Z,102310.47
2023-02-15T16:57:34.462Z,102305.28
2023-02-15T17:00:07.102Z,102306.03
2023-02-15T17:02:56.296Z,102310.22
2023-02-15T17:05:24.543Z,102308.44
2023-02-15T17:08:07.957Z,102305.78
2023-02-15T17:10:37.700Z,102301.19
2023-02-15T17:13:11.615Z,102301.31
2023-02-15T17:15:41.295Z,102302.63
2023-02-15T17:18:16.947Z,102306.50
2023-02-15T17:20:45.599Z,102298.06
2023-02-15T17:23:24.895Z,102308.19
2023-02-15T17:25:53.146Z,102305.91
2023-02-15T17:28:23.918Z,102291.84
2023-02-15T17:30:53.390Z,102290.28
2023-02-15T17:33:23.640Z,102282.22
2023-02-15T17:36:07.006Z,102295.69
2023-02-15T17:38:36.486Z,102301.22
2023-02-15T17:41:04.545Z,102309.13
2023-02-15T17:43:32.442Z,102305.53
2023-02-15T17:46:00.500Z,102307.19
2023-02-15T17:48:34.024Z,102310.69
2023-02-15T17:51:03.924Z,102302.28
2023-02-15T17:53:31.985Z,102313.47
2023-02-15T17:56:00.124Z,102320.41
2023-02-15T17:58:27.750Z,102315.97
2023-02-15T18:01:15.191Z,102307.34
2023-02-15T18:04:02.592Z,102303.75
2023-02-15T18:06:48.331Z,102307.94
2023-02-15T18:09:35.566Z,102309.84
2023-02-15T18:12:14.924Z,102314.19
2023-02-15T18:14:44.712Z,102300.72
2023-02-15T18:17:14.273Z,102295.59
2023-02-15T18:19:42.987Z,102280.78
2023-02-15T18:22:12.480Z,102274.44
2023-02-15T18:24:40.514Z,102281.38
2023-02-15T18:27:09.759Z,102290.16
2023-02-15T18:29:37.364Z,102283.94
2023-02-15T18:32:09.147Z,102274.22
2023-02-15T18:34:39.304Z,102272.75
2023-02-15T18:37:11.953Z,102276.25
2023-02-15T18:39:43.763Z,102285.13
2023-02-15T18:42:21.548Z,102292.34
2023-02-15T18:44:49.285Z,102300.13
2023-02-15T18:47:18.945Z,102297.38
2023-02-15T18:49:46.635Z,102293.03
2023-02-15T18:52:17.621Z,102293.66
2023-02-15T18:54:46.191Z,102303.63
2023-02-15T18:57:16.862Z,102299.78
2023-02-15T18:59:44.575Z,102305.06
2023-02-15T19:02:14.164Z,102296.06
2023-02-15T19:04:42.290Z,102296.28
2023-02-15T19:07:17.977Z,102296.28
2023-02-15T19:09:48.094Z,102287.66
2023-02-15T19:12:19.382Z,102276.84
2023-02-15T19:14:47.377Z,102269.88
2023-02-15T19:17:16.708Z,102269.03
2023-02-15T19:19:44.482Z,102264.59
2023-02-15T19:22:14.964Z,102269.03
2023-02-15T19:24:45.763Z,102264.81
2023-02-15T19:27:24.492Z,102270.72
2023-02-15T19:29:53.052Z,102265.66
2023-02-15T19:32:20.754Z,102258.59
2023-02-15T19:34:48.402Z,102264.59
2023-02-15T19:37:25.118Z,102256.66
2023-02-15T19:39:53.329Z,102253.88
2023-02-15T19:42:25.106Z,102252.47
2023-02-15T19:44:54.505Z,102254.03
2023-02-15T19:47:22.821Z,102248.97
2023-02-15T19:49:50.628Z,102263.97
2023-02-15T19:52:20.998Z,102252.72
2023-02-15T19:54:49.791Z,102250.16
2023-02-15T19:57:17.621Z,102259.78
2023-02-15T19:59:46.791Z,102254.50
2023-02-15T20:02:15.954Z,102257.13
2023-02-15T20:04:43.672Z,102258.94
2023-02-15T20:07:22.693Z,102251.84
2023-02-15T20:09:50.333Z,102250.91
2023-02-15T20:12:22.815Z,102247.53
2023-02-15T20:14:51.901Z,102235.28
2023-02-15T20:17:20.011Z,102236.34
2023-02-15T20:19:47.714Z,102227.72
2023-02-15T20:22:23.376Z,102221.59
2023-02-15T20:24:52.186Z,102224.38
2023-02-15T20:27:20.210Z,102209.84
2023-02-15T20:29:47.856Z,102219.81
2023-02-15T20:32:17.107Z,102217.41
2023-02-15T20:34:44.841Z,102226.19
2023-02-15T20:37:23.130Z,102219.91
2023-02-15T20:39:51.990Z,102220.91
2023-02-15T20:42:21.382Z,102226.19
2023-02-15T20:44:49.317Z,102222.69
2023-02-15T20:47:18.525Z,102229.66
2023-02-15T20:49:46.152Z,102225.19
2023-02-15T20:52:20.060Z,102225.09
2023-02-15T20:54:47.751Z,102218.97
2023-02-15T20:57:16.559Z,102218.25
2023-02-15T20:59:44.318Z,102204.31
2023-02-15T21:02:23.066Z,102210.56
2023-02-15T21:04:50.938Z,102205.63
2023-02-15T21:07:20.580Z,102203.59
2023-02-15T21:09:49.106Z,102209.22
2023-02-15T21:12:18.826Z,102205.03
2023-02-15T21:14:46.830Z,102206.81
2023-02-15T21:17:16.257Z,102200.13
2023-02-15T21:19:46.076Z,102203.56
2023-02-15T21:22:15.204Z,102199.38
2023-02-15T21:24:50.099Z,102192.44
2023-02-15T21:27:18.350Z,102198.66
2023-02-15T21:29:45.925Z,102188.25
2023-02-15T21:32:13.689Z,102188.34
2023-02-15T21:34:41.354Z,102177.09
2023-02-15T21:37:27.382Z,102173.59
2023-02-15T21:39:54.987Z,102167.00
2023-02-15T21:42:40.070Z,102167.25
2023-02-15T21:45:31.683Z,102149.00
2023-02-15T21:47:59.537Z,102159.91
2023-02-15T21:50:44.565Z,102152.34
2023-02-15T21:53:20.163Z,102156.16
2023-02-15T21:55:47.853Z,102153.66
2023-02-15T21:58:20.906Z,102150.41
2023-02-15T22:00:49.120Z,102140.19
2023-02-15T22:03:17.417Z,102137.09
2023-02-15T22:05:45.018Z,102133.75
2023-02-15T22:08:14.759Z,102136.47
2023-02-15T22:10:43.216Z,102141.97
2023-02-15T22:13:15.737Z,102133.22
2023-02-15T22:15:46.516Z,102122.81
2023-02-15T22:18:22.825Z,102119.47
2023-02-15T22:20:50.674Z,102114.28
2023-02-15T22:23:20.142Z,102118.72
2023-02-15T22:25:54.577Z,102121.47
2023-02-15T22:28:27.318Z,102118.00
2023-02-15T22:30:54.960Z,102118.25
2023-02-15T22:33:26.269Z,102112.03
2023-02-15T22:35:54.240Z,102113.06
2023-02-15T22:38:23.288Z,102124.59
2023-02-15T22:40:52.756Z,102109.63
2023-02-15T22:43:31.477Z,102112.34
2023-02-15T22:46:02.946Z,102122.06
2023-02-15T22:48:30.870Z,102111.50
2023-02-15T22:50:58.743Z,102115.13
2023-02-15T22:53:28.097Z,102099.31
2023-02-15T22:55:56.809Z,102102.88
2023-02-15T22:58:28.028Z,102118.84
2023-02-15T23:00:57.960Z,102111.16
2023-02-15T23:03:28.671Z,102097.22
2023-02-15T23:05:56.485Z,102106.13
2023-02-15T23:08:24.186Z,102100.94
2023-02-15T23:10:56.374Z,102103.72
2023-02-15T23:13:26.324Z,102102.97
2023-02-15T23:15:58.633Z,102108.38
2023-02-15T23:18:30.443Z,102093.50
2023-02-15T23:20:59.932Z,102101.53
2023-02-15T23:23:32.330Z,102095.53
2023-02-15T23:26:04.248Z,102097.44
2023-02-15T23:28:36.310Z,102102.81
2023-02-15T23:31:07.086Z,102105.44
2023-02-15T23:33:35.924Z,102112.53
2023-02-15T23:36:03.631Z,102113.50
2023-02-15T23:38:33.471Z,102108.22
2023-02-15T23:41:22.838Z,102096.72
2023-02-15T23:43:54.897Z,102084.38
2023-02-15T23:46:34.953Z,102084.50
2023-02-15T23:49:14.642Z,102085.34
2023-02-15T23:51:43.855Z,102084.50
2023-02-15T23:54:12.128Z,102088.91
2023-02-15T23:56:42.773Z,102088.69
2023-02-15T23:59:16.350Z,102086.75
